Time;durP1;ratioP1;P1;durP2;ratioP2;P2;SDS_P1;SDS_P2;PMS_P1;PMS_P2;Temp;Humidity;BMP_temperature;BMP_pressure;BME280_temperature;BME280_humidity;BME280_pressure;Samples;Min_cycle;Max_cycle;Signal;HPM_P1;HPM_P2
2022/06/03 00:01:25;;;;;;;2.55;1.63;;;;;;;17.16;56.95;100261.53;6129027;23;20081;-75
2022/06/03 00:04:06;;;;;;;;;;;;;;;17.12;55.98;100250.19;6128230;23;20009;-75
2022/06/03 00:07:19;;;;;;;1.65;1.42;;;;;;;17.09;56.45;100247.28;6129688;23;19927;-75
2022/06/03 00:10:09;;;;;;;1.80;1.42;;;;;;;17.05;57.14;100249.97;6078989;23;20024;-75
2022/06/03 00:12:50;;;;;;;3.95;1.60;;;;;;;16.94;57.97;100237.50;6153332;23;20042;-75
2022/06/03 00:15:46;;;;;;;2.05;1.45;;;;;;;16.87;57.08;100245.66;6127414;23;20021;-74
2022/06/03 00:18:34;;;;;;;2.35;1.70;;;;;;;16.84;56.78;100237.94;6113882;23;20089;-74
2022/06/03 00:21:07;;;;;;;2.72;2.00;;;;;;;16.80;57.12;100239.75;6124464;23;20089;-75
2022/06/03 00:23:54;;;;;;;3.15;2.03;;;;;;;16.75;57.57;100235.16;6153215;23;20009;-74
2022/06/03 00:26:29;;;;;;;2.47;2.10;;;;;;;16.71;57.59;100237.00;6130562;23;20002;-74
2022/06/03 00:29:06;;;;;;;2.65;1.90;;;;;;;16.67;56.95;100236.06;6177978;23;20317;-75
2022/06/03 00:31:46;;;;;;;2.33;1.77;;;;;;;16.65;57.38;100239.19;6177941;23;20387;-75
2022/06/03 00:34:31;;;;;;;2.72;1.70;;;;;;;16.65;58.28;100233.56;6129796;23;20010;-75
2022/06/03 00:37:31;;;;;;;3.92;1.83;;;;;;;16.63;58.05;100235.91;6126108;23;20006;-75
2022/06/03 00:40:18;;;;;;;2.53;1.60;;;;;;;16.62;58.33;100239.06;6130022;23;20367;-75
2022/06/03 00:43:07;;;;;;;3.28;1.67;;;;;;;16.57;59.14;100226.06;6130167;23;20014;-75
2022/06/03 00:45:49;;;;;;;3.67;1.70;;;;;;;16.60;58.61;100236.56;6177942;23;20009;-75
2022/06/03 00:48:46;;;;;;;3.30;1.73;;;;;;;16.56;58.55;100232.00;6129525;23;20006;-75
2022/06/03 00:51:49;;;;;;;3.63;1.80;;;;;;;16.54;58.56;100226.75;6127108;23;20339;-75
2022/06/03 00:54:32;;;;;;;2.10;1.50;;;;;;;16.51;57.50;100224.63;6103817;23;20357;-75
2022/06/03 00:57:08;;;;;;;2.63;1.70;;;;;;;16.46;58.16;100222.00;6151694;23;20014;-75
2022/06/03 00:59:36;;;;;;;2.10;1.90;;;;;;;16.42;58.29;100223.88;6152842;23;20010;-75
2022/06/03 01:02:24;;;;;;;2.45;1.60;;;;;;;16.36;58.15;100226.06;6129757;23;20010;-75
2022/06/03 01:05:11;;;;;;;3.92;1.63;;;;;;;16.34;58.32;100211.56;6129239;23;20017;-75
2022/06/03 01:07:40;;;;;;;2.90;1.73;;;;;;;16.28;58.91;100224.94;6129767;23;20026;-75
2022/06/03 01:10:19;;;;;;;2.08;1.70;;;;;;;16.24;58.72;100226.78;6129750;23;20014;-75
2022/06/03 01:13:13;;;;;;;2.72;1.58;;;;;;;16.23;58.92;100222.31;6174980;23;20068;-75
2022/06/03 01:15:58;;;;;;;1.85;1.52;;;;;;;16.14;58.18;100224.38;6129071;23;20022;-75
2022/06/03 01:19:02;;;;;;;4.38;1.90;;;;;;;16.13;58.81;100217.13;6129482;23;20092;-75
2022/06/03 01:21:50;;;;;;;3.50;1.77;;;;;;;16.08;58.57;100215.34;6128092;23;20420;-74
2022/06/03 01:24:50;;;;;;;1.75;1.58;;;;;;;16.07;58.93;100224.06;6149439;23;20002;-74
2022/06/03 01:27:53;;;;;;;3.30;1.77;;;;;;;16.03;58.90;100215.53;6129607;23;20010;-74
2022/06/03 01:30:28;;;;;;;2.60;1.77;;;;;;;15.98;58.94;100210.13;6127995;23;20025;-75
2022/06/03 01:33:01;;;;;;;2.75;1.80;;;;;;;15.93;58.39;100212.28;6127963;23;20010;-75
2022/06/03 01:35:41;;;;;;;2.47;1.77;;;;;;;15.92;59.13;100200.28;6152359;23;20400;-75
2022/06/03 01:38:50;;;;;;;4.07;1.80;;;;;;;15.90;59.11;100207.38;6174027;23;20033;-75
2022/06/03 01:41:49;;;;;;;3.05;1.50;;;;;;;15.83;58.32;100197.50;6102913;23;20512;-75
2022/06/03 01:44:30;;;;;;;3.38;1.70;;;;;;;15.81;58.47;100197.03;6129558;23;20060;-75
2022/06/03 01:47:30;;;;;;;1.77;1.60;;;;;;;15.79;59.00;100196.53;6150538;23;20014;-75
2022/06/03 01:50:31;;;;;;;3.33;1.65;;;;;;;15.76;58.14;100183.22;6103169;23;20061;-75
2022/06/03 01:53:14;;;;;;;2.47;1.73;;;;;;;15.63;60.93;100190.66;6126588;23;20017;-75
2022/06/03 01:56:18;;;;;;;3.70;2.08;;;;;;;15.61;61.13;100187.38;6126244;23;20049;-75
2022/06/03 01:59:07;;;;;;;2.15;1.52;;;;;;;15.60;59.69;100184.91;6077916;23;20013;-75
2022/06/03 02:01:57;;;;;;;4.18;1.83;;;;;;;15.59;59.51;100180.47;6101819;23;20006;-75
2022/06/03 02:04:43;;;;;;;2.70;1.60;;;;;;;15.56;59.99;100181.97;6126134;23;20014;-75
2022/06/03 02:07:30;;;;;;;3.60;1.65;;;;;;;15.57;59.26;100180.81;6125846;23;20017;-75
2022/06/03 02:10:20;;;;;;;2.10;1.52;;;;;;;15.55;59.64;100183.13;6079623;23;20010;-75
2022/06/03 02:12:48;;;;;;;2.47;1.80;;;;;;;15.54;59.75;100177.84;6128286;23;20013;-75
2022/06/03 02:15:38;;;;;;;2.72;1.55;;;;;;;15.51;60.25;100172.94;6128450;23;20021;-75
2022/06/03 02:18:28;;;;;;;2.75;1.80;;;;;;;15.50;59.81;100177.72;6128144;23;20574;-75
2022/06/03 02:20:54;;;;;;;2.75;1.60;;;;;;;15.48;60.05;100173.59;6079690;23;20010;-75
2022/06/03 02:23:46;;;;;;;2.35;1.52;;;;;;;15.45;59.15;100172.28;6080033;23;20419;-75
2022/06/03 02:27:01;;;;;;;2.40;2.00;;;;;;;15.45;59.18;100179.88;6128853;23;20388;-75
2022/06/03 02:30:27;;;;;;;3.42;1.88;;;;;;;15.46;58.50;100171.16;6098942;23;20029;-75
2022/06/03 02:33:10;;;;;;;2.38;1.52;;;;;;;15.41;59.02;100174.13;6017904;23;20015;-75
2022/06/03 02:35:57;;;;;;;1.80;1.58;;;;;;;15.39;58.84;100165.25;6131236;23;20010;-75
2022/06/03 02:38:44;;;;;;;2.45;1.45;;;;;;;15.39;58.57;100166.06;6131234;23;20002;-75
2022/06/03 02:41:42;;;;;;;3.63;1.50;;;;;;;15.38;58.26;100163.63;6131212;23;20018;-75
2022/06/03 02:44:35;;;;;;;3.03;1.60;;;;;;;15.33;58.51;100156.22;6155240;23;20014;-75
2022/06/03 02:47:06;;;;;;;2.17;1.45;;;;;;;15.33;58.43;100156.22;6105275;23;20340;-75
2022/06/03 02:50:09;;;;;;;2.63;1.73;;;;;;;15.27;59.34;100162.34;6130582;23;20010;-75
2022/06/03 02:52:54;;;;;;;4.05;1.58;;;;;;;15.25;58.83;100157.06;6131059;23;20064;-75
2022/06/03 02:55:42;;;;;;;1.50;1.30;;;;;;;15.24;59.13;100149.84;6129532;23;20037;-75
2022/06/03 02:58:17;;;;;;;1.70;1.48;;;;;;;15.24;59.38;100154.59;6127450;23;20065;-75
2022/06/03 03:01:04;;;;;;;2.85;1.65;;;;;;;15.19;59.76;100153.63;6131178;23;20494;-75
2022/06/03 03:04:08;;;;;;;1.98;1.73;;;;;;;15.15;60.30;100158.22;6130628;23;20033;-75
2022/06/03 03:06:33;;;;;;;;;;;;;;;15.12;59.90;100161.69;6129728;23;20503;-75
2022/06/03 03:09:14;;;;;;;3.47;1.60;;;;;;;15.12;60.68;100155.28;6178794;23;19982;-75
2022/06/03 03:12:03;;;;;;;2.10;1.65;;;;;;;15.08;61.44;100159.91;6152747;23;20017;-75
2022/06/03 03:14:51;;;;;;;3.45;1.70;;;;;;;15.03;61.84;100163.69;6171406;23;20014;-75
2022/06/03 03:17:42;;;;;;;2.63;1.52;;;;;;;15.00;62.08;100164.38;6130789;23;20048;-75
2022/06/03 03:20:23;;;;;;;2.53;1.40;;;;;;;14.95;60.26;100167.34;6128871;23;20026;-75
2022/06/03 03:23:07;;;;;;;1.70;1.58;;;;;;;14.95;61.36;100167.34;6131049;23;20016;-75
2022/06/03 03:25:36;;;;;;;3.13;1.60;;;;;;;14.93;60.73;100176.06;6130743;23;20101;-75
2022/06/03 03:28:23;;;;;;;4.22;1.92;;;;;;;14.96;61.00;100171.78;6153598;23;20006;-75
2022/06/03 03:30:48;;;;;;;1.85;1.60;;;;;;;14.94;59.93;100180.50;6130816;23;20018;-75
2022/06/03 03:33:20;;;;;;;4.00;1.60;;;;;;;14.94;60.60;100172.09;6128809;23;20443;-75
2022/06/03 03:35:54;;;;;;;3.80;1.60;;;;;;;14.95;61.42;100184.91;6130590;23;20133;-75
2022/06/03 03:39:01;;;;;;;2.67;1.60;;;;;;;14.90;62.80;100176.69;6130640;23;20029;-75
2022/06/03 03:42:03;;;;;;;3.53;1.55;;;;;;;14.84;62.18;100178.03;6128564;23;20454;-75
2022/06/03 03:44:47;;;;;;;3.58;1.80;;;;;;;14.89;61.45;100179.84;6118842;23;20040;-75
2022/06/03 03:47:43;;;;;;;2.78;1.50;;;;;;;14.82;61.69;100171.13;6128986;23;20479;-75
2022/06/03 03:50:23;;;;;;;1.55;1.40;;;;;;;14.85;61.90;100178.84;6177847;23;20014;-75
2022/06/03 03:52:55;;;;;;;2.95;1.60;;;;;;;14.87;61.98;100173.75;6130458;23;20041;-75
2022/06/03 03:55:35;;;;;;;1.75;1.42;;;;;;;14.88;61.04;100181.00;6130399;23;20006;-75
2022/06/03 03:58:42;;;;;;;2.33;1.70;;;;;;;14.87;63.04;100170.97;6129351;23;20006;-75
2022/06/03 04:01:35;;;;;;;4.25;1.55;;;;;;;14.81;63.85;100164.72;6103540;23;20014;-75
2022/06/03 04:04:24;;;;;;;2.80;1.50;;;;;;;14.82;62.34;100154.34;6130232;23;20009;-75
2022/06/03 04:06:58;;;;;;;2.08;1.52;;;;;;;14.82;63.02;100145.97;6171093;23;20009;-75
2022/06/03 04:10:19;;;;;;;2.63;1.50;;;;;;;14.82;62.50;100138.44;6129690;23;20010;-75
2022/06/03 04:13:09;;;;;;;3.00;1.50;;;;;;;14.84;61.93;100132.50;6127328;23;20014;-75
2022/06/03 04:15:39;;;;;;;2.63;1.63;;;;;;;14.80;62.99;100128.72;6127518;23;20018;-75
2022/06/03 04:18:42;;;;;;;2.85;1.67;;;;;;;14.80;63.69;100126.75;6128118;23;20033;-75
2022/06/03 04:21:28;;;;;;;;;;;;;;;14.79;64.18;100129.84;6130760;23;20017;-75
2022/06/03 04:24:17;;;;;;;3.63;1.60;;;;;;;14.79;63.57;100124.28;6128652;23;19904;-75
2022/06/03 04:26:51;;;;;;;4.78;1.60;;;;;;;14.84;62.66;100127.72;6153240;23;20010;-75
2022/06/03 04:29:35;;;;;;;6.15;1.48;;;;;;;14.85;62.42;100123.78;6144790;23;20014;-75
2022/06/03 04:32:03;;;;;;;3.22;1.60;;;;;;;14.86;62.78;100125.41;6159310;23;20045;-75
2022/06/03 04:35:14;;;;;;;1.83;1.48;;;;;;;14.86;62.86;100122.63;6159116;23;20091;-76
2022/06/03 04:37:53;;;;;;;1.70;1.60;;;;;;;14.90;62.54;100126.38;6136012;23;20013;-75
2022/06/03 04:41:03;;;;;;;1.98;1.77;;;;;;;14.87;63.20;100121.44;6133365;23;20057;-75
2022/06/03 04:43:52;;;;;;;2.72;1.38;;;;;;;14.88;63.07;100125.91;6156194;23;20013;-75
2022/06/03 04:46:55;;;;;;;2.78;1.50;;;;;;;14.91;62.25;100128.03;6129390;23;20080;-75
2022/06/03 04:49:23;;;;;;;3.22;1.52;;;;;;;14.94;62.68;100124.56;6158853;23;20013;-75
2022/06/03 04:52:17;;;;;;;3.13;1.90;;;;;;;14.96;61.66;100132.63;6159410;23;20013;-75
2022/06/03 04:54:51;;;;;;;1.95;1.60;;;;;;;14.98;61.28;100128.34;6133378;23;20500;-75
2022/06/03 04:57:35;;;;;;;2.47;1.52;;;;;;;15.00;62.14;100139.19;6133056;23;20033;-75
2022/06/03 05:00:40;;;;;;;4.10;1.33;;;;;;;15.03;62.65;100138.53;6159343;23;20033;-75
2022/06/03 05:03:37;;;;;;;2.50;1.50;;;;;;;15.02;62.80;100130.50;6113277;23;20010;-75
2022/06/03 05:06:34;;;;;;;4.25;1.80;;;;;;;15.00;62.88;100139.19;6159165;23;20089;-75
2022/06/03 05:09:30;;;;;;;3.50;1.63;;;;;;;15.07;62.97;100135.88;6134409;23;20433;-75
2022/06/03 05:12:14;;;;;;;2.75;1.58;;;;;;;15.06;64.07;100145.44;6108666;23;20108;-75
2022/06/03 05:15:12;;;;;;;2.70;1.60;;;;;;;15.09;62.58;100142.78;6132868;23;20017;-75
2022/06/03 05:17:57;;;;;;;1.52;1.40;;;;;;;15.14;63.37;100151.00;6159213;23;20431;-75
2022/06/03 05:20:31;;;;;;;2.22;1.60;;;;;;;15.18;64.00;100145.56;6159117;23;20005;-75
2022/06/03 05:23:22;;;;;;;2.13;1.50;;;;;;;15.22;63.80;100149.34;6133199;23;20009;-75
2022/06/03 05:26:16;;;;;;;2.22;1.50;;;;;;;15.27;62.55;100154.75;6159216;23;20001;-74
2022/06/03 05:29:10;;;;;;;3.70;1.38;;;;;;;15.29;63.55;100149.63;6112191;23;20025;-75
2022/06/03 05:31:55;;;;;;;2.60;1.70;;;;;;;15.35;64.83;100150.25;6133251;23;20021;-72
2022/06/03 05:34:34;;;;;;;1.90;1.33;;;;;;;15.40;62.91;100153.69;6158805;23;20002;-77
2022/06/03 05:37:27;;;;;;;3.55;1.50;;;;;;;15.41;64.92;100158.16;6135119;23;20022;-77
2022/06/03 05:40:18;;;;;;;3.28;1.60;;;;;;;15.44;65.31;100161.44;6135894;23;20016;-77
2022/06/03 05:43:09;;;;;;;3.90;1.80;;;;;;;15.47;64.45;100156.00;6159014;23;20005;-77
2022/06/03 05:45:53;;;;;;;4.07;1.90;;;;;;;15.53;64.77;100156.63;6110334;23;20017;-76
2022/06/03 05:48:30;;;;;;;4.05;1.45;;;;;;;15.57;65.19;100164.03;6132785;23;20065;-77
2022/06/03 05:51:21;;;;;;;1.58;1.48;;;;;;;15.65;64.39;100159.53;6135184;23;20009;-77
2022/06/03 05:53:49;;;;;;;3.85;1.90;;;;;;;15.69;65.39;100154.13;6108472;23;20045;-78
2022/06/03 05:56:42;;;;;;;4.20;1.60;;;;;;;15.74;65.01;100148.31;6132686;23;20013;-77
2022/06/03 05:59:18;;;;;;;3.67;1.98;;;;;;;15.77;67.58;100144.84;6136622;23;20392;-76
2022/06/03 06:02:09;;;;;;;2.28;1.73;;;;;;;15.81;68.20;100141.03;6133952;23;20482;-77
2022/06/03 06:04:53;;;;;;;3.47;2.03;;;;;;;15.82;69.09;100139.03;6107995;23;20013;-77
2022/06/03 06:07:47;;;;;;;2.00;1.70;;;;;;;15.88;68.78;100137.72;6110504;23;20056;-77
2022/06/03 06:10:31;;;;;;;3.17;2.00;;;;;;;15.92;70.30;100130.25;6149212;23;20040;-76
2022/06/03 06:12:59;;;;;;;4.00;1.92;;;;;;;15.94;71.57;100139.16;6132972;23;20010;-75
2022/06/03 06:16:01;;;;;;;4.70;2.08;;;;;;;15.99;71.08;100130.56;6133008;23;20025;-75
2022/06/03 06:18:38;;;;;;;3.15;1.73;;;;;;;16.06;70.36;100133.63;6132603;23;20013;-75
2022/06/03 06:21:12;;;;;;;7.35;1.90;;;;;;;16.07;70.71;100132.47;6108616;23;20438;-75
2022/06/03 06:23:46;;;;;;;3.90;1.90;;;;;;;16.12;72.17;100125.03;6134572;23;20037;-74
2022/06/03 06:26:11;;;;;;;5.40;2.00;;;;;;;16.15;71.10;100129.94;6109552;23;20420;-76
2022/06/03 06:28:55;;;;;;;3.03;1.88;;;;;;;16.21;70.32;100131.38;6158547;23;20044;-75
2022/06/03 06:31:48;;;;;;;3.00;1.80;;;;;;;16.23;71.05;100138.28;6132758;23;20017;-76
2022/06/03 06:34:29;;;;;;;;;;;;;;;16.30;69.85;100134.94;6133303;23;20428;-75
2022/06/03 06:37:01;;;;;;;4.60;1.98;;;;;;;16.36;69.81;100141.16;6182513;23;20283;-75
2022/06/03 06:39:38;;;;;;;4.03;1.75;;;;;;;16.41;70.14;100146.53;6133152;23;20489;-77
2022/06/03 06:42:23;;;;;;;4.30;2.05;;;;;;;16.47;71.21;100148.81;6132875;23;20005;-76
2022/06/03 06:45:16;;;;;;;2.47;1.80;;;;;;;16.54;70.16;100148.25;6108407;23;20096;-75
2022/06/03 06:47:47;;;;;;;3.95;1.92;;;;;;;16.61;68.87;100145.72;6110227;23;20009;-75
2022/06/03 06:50:25;;;;;;;3.78;2.00;;;;;;;16.67;70.05;100146.34;6158320;23;20017;-75
2022/06/03 06:53:06;;;;;;;5.80;2.03;;;;;;;16.74;68.11;100146.56;6085248;23;20005;-75
2022/06/03 06:55:51;;;;;;;2.17;1.60;;;;;;;16.81;67.80;100151.69;6133572;23;20379;-75
2022/06/03 06:58:50;;;;;;;2.22;1.67;;;;;;;16.90;67.98;100153.22;6065619;23;20044;-75
2022/06/03 07:01:44;;;;;;;5.40;2.00;;;;;;;16.98;70.72;100152.31;6113253;23;20017;-75
2022/06/03 07:04:19;;;;;;;3.92;1.65;;;;;;;17.06;71.03;100146.97;6107898;23;20021;-75
2022/06/03 07:06:59;;;;;;;1.77;1.50;;;;;;;17.11;69.57;100144.75;6134787;23;20009;-75
2022/06/03 07:09:42;;;;;;;2.45;1.80;;;;;;;17.20;69.65;100139.03;6112202;23;20028;-75
2022/06/03 07:12:15;;;;;;;4.13;2.00;;;;;;;17.26;70.82;100139.63;6111902;23;20068;-75
2022/06/03 07:15:14;;;;;;;3.33;1.70;;;;;;;17.31;70.37;100131.81;6111326;23;20092;-75
2022/06/03 07:20:56;;;;;;;1.80;1.42;;;;;;;17.46;70.89;100126.69;6158309;23;20025;-75
2022/06/03 07:23:36;;;;;;;2.83;2.00;;;;;;;17.50;72.01;100133.25;6110561;23;20446;-75
2022/06/03 07:26:02;;;;;;;4.88;2.00;;;;;;;17.55;71.38;100130.19;6111329;23;20029;-75
2022/06/03 07:28:30;;;;;;;2.80;1.90;;;;;;;17.61;71.93;100128.81;6133953;23;20018;-74
2022/06/03 07:31:11;;;;;;;2.67;2.00;;;;;;;17.68;71.38;100129.03;6160400;23;20729;-75
2022/06/03 07:33:43;;;;;;;3.45;1.80;;;;;;;17.74;71.50;100119.19;6109653;23;20005;-75
2022/06/03 07:36:27;;;;;;;;;;;;;;;17.80;72.80;100109.41;6110724;23;20017;-75
2022/06/03 07:38:55;;;;;;;5.28;1.80;;;;;;;17.91;72.93;100114.53;6183445;23;19905;-75
2022/06/03 07:41:52;;;;;;;4.43;1.75;;;;;;;17.98;73.30;100114.75;6109770;23;20005;-75
2022/06/03 07:44:23;;;;;;;1.98;1.73;;;;;;;18.07;72.42;100116.25;6137715;23;20075;-75
2022/06/03 07:47:00;;;;;;;2.35;1.70;;;;;;;18.17;71.25;100133.81;6134561;23;20018;-74
2022/06/03 07:49:29;;;;;;;2.05;1.27;;;;;;;18.26;69.69;100154.16;6111595;23;20010;-75
2022/06/03 07:51:59;;;;;;;2.42;1.60;;;;;;;18.34;70.14;100169.25;6135466;23;20324;-75
2022/06/03 07:54:35;;;;;;;2.13;1.50;;;;;;;18.42;70.81;100188.81;6134601;23;20431;-76
2022/06/03 07:57:07;;;;;;;3.38;1.70;;;;;;;18.47;71.18;100190.53;6085980;23;20032;-75
2022/06/03 07:59:34;;;;;;;2.70;1.75;;;;;;;18.52;72.23;100182.66;6134842;23;20587;-76
2022/06/03 08:02:04;;;;;;;3.45;1.40;;;;;;;18.56;71.20;100188.41;6109335;23;20013;-76
2022/06/03 08:04:34;;;;;;;5.55;1.70;;;;;;;18.62;71.38;100183.38;6109912;23;20017;-76
2022/06/03 08:12:38;;;;;;;5.10;1.90;;;;;;;18.70;72.62;100180.41;6111884;23;20006;-76
2022/06/03 08:15:23;;;;;;;2.53;1.80;;;;;;;18.74;72.06;100180.53;6133596;23;20009;-76
2022/06/03 08:17:49;;;;;;;2.38;1.65;;;;;;;18.78;72.22;100177.81;6159456;23;20084;-76
2022/06/03 08:20:17;;;;;;;3.65;2.00;;;;;;;18.83;72.55;100169.94;6133723;23;20013;-75
2022/06/03 08:22:44;;;;;;;3.20;1.80;;;;;;;18.85;72.25;100170.41;6109843;23;20578;-74
2022/06/03 08:25:10;;;;;;;4.88;1.70;;;;;;;18.89;72.19;100167.72;6110107;23;20013;-75
2022/06/03 08:27:35;;;;;;;3.13;2.00;;;;;;;18.92;71.94;100181.06;6085127;23;20331;-74
2022/06/03 08:30:06;;;;;;;2.53;1.90;;;;;;;18.93;72.64;100177.88;6133407;23;20052;-74
2022/06/03 08:32:35;;;;;;;4.85;1.92;;;;;;;18.94;72.11;100176.72;6110116;23;20013;-69
2022/06/03 08:35:04;;;;;;;5.72;1.92;;;;;;;18.91;72.41;100177.41;6133781;23;20006;-69
2022/06/03 08:37:35;;;;;;;5.68;2.33;;;;;;;18.88;73.33;100180.94;6109171;23;20005;-69
2022/06/03 08:40:09;;;;;;;4.18;2.17;;;;;;;18.86;73.54;100196.53;6109538;23;20005;-69
2022/06/03 08:42:49;;;;;;;5.50;2.22;;;;;;;18.84;72.22;100194.09;6110684;23;20080;-69
2022/06/03 08:45:27;;;;;;;3.85;2.50;;;;;;;18.82;73.77;100192.81;6158208;23;20052;-69
2022/06/03 08:47:54;;;;;;;6.07;2.72;;;;;;;18.79;73.89;100193.53;6087356;23;20009;-70
2022/06/03 08:50:27;;;;;;;5.80;2.40;;;;;;;18.75;75.24;100193.44;6084766;23;20014;-70
2022/06/03 08:53:17;;;;;;;;;;;;;;;18.71;75.87;100192.47;6085559;23;20082;-70
2022/06/03 08:55:54;;;;;;;5.50;2.72;;;;;;;18.65;77.87;100179.84;6133624;23;19959;-69
2022/06/03 08:58:23;;;;;;;4.93;2.78;;;;;;;18.57;78.38;100175.16;6111159;23;20108;-70
2022/06/03 09:01:04;;;;;;;6.40;2.88;;;;;;;18.48;79.87;100170.50;6159579;23;20037;-70
2022/06/03 09:03:30;;;;;;;6.18;2.72;;;;;;;18.41;80.60;100172.28;6133169;23;20036;-70
2022/06/03 09:06:11;;;;;;;5.03;2.72;;;;;;;18.35;81.24;100173.69;6133276;23;20037;-70
2022/06/03 09:08:55;;;;;;;4.18;2.70;;;;;;;18.27;81.91;100164.22;6110814;23;20009;-70
2022/06/03 09:11:33;;;;;;;5.00;2.85;;;;;;;18.19;82.47;100170.78;6133204;23;20056;-70
2022/06/03 09:14:03;;;;;;;8.13;3.22;;;;;;;18.12;81.87;100187.44;6109788;23;20020;-70
2022/06/03 09:16:29;;;;;;;4.97;2.95;;;;;;;18.05;82.86;100193.63;6157739;23;20014;-70
2022/06/03 09:18:59;;;;;;;6.90;2.97;;;;;;;17.98;83.58;100197.06;6132948;23;20002;-70
2022/06/03 09:21:26;;;;;;;4.70;2.97;;;;;;;17.94;83.43;100204.56;6108914;23;20009;-69
2022/06/03 09:23:59;;;;;;;6.97;2.92;;;;;;;17.85;82.39;100201.03;6133369;23;20006;-69
2022/06/03 09:26:32;;;;;;;5.82;3.13;;;;;;;17.80;82.77;100192.81;6109300;23;20461;-70
2022/06/03 09:28:58;;;;;;;7.20;3.03;;;;;;;17.78;83.73;100195.16;6133158;23;20049;-70
2022/06/03 09:31:24;;;;;;;5.47;3.03;;;;;;;17.75;84.14;100196.66;6157723;23;20044;-70
2022/06/03 09:33:49;;;;;;;4.45;2.90;;;;;;;17.73;85.70;100189.75;6132931;23;20016;-69
2022/06/03 09:36:18;;;;;;;4.18;3.00;;;;;;;17.69;87.07;100202.84;6132739;23;20427;-69
2022/06/03 09:38:51;;;;;;;4.00;2.95;;;;;;;17.66;87.39;100204.38;6108377;23;20037;-69
2022/06/03 09:41:18;;;;;;;6.57;2.97;;;;;;;17.65;88.59;100202.75;6158893;23;20009;-69
2022/06/03 09:43:46;;;;;;;5.30;3.35;;;;;;;17.63;89.36;100205.06;6108854;23;20005;-70
2022/06/03 09:46:12;;;;;;;7.97;3.42;;;;;;;17.62;90.04;100204.25;6133036;23;20297;-69
2022/06/03 09:48:37;;;;;;;8.02;3.75;;;;;;;17.64;90.95;100213.16;6132591;23;20016;-69
2022/06/03 09:54:11;;;;;;;5.85;3.05;;;;;;;17.67;91.34;100203.22;6136889;23;20056;-69
2022/06/03 09:56:37;;;;;;;3.47;2.97;;;;;;;17.70;91.54;100204.50;6132972;23;20016;-69
2022/06/03 09:59:02;;;;;;;3.80;3.20;;;;;;;17.72;91.47;100200.19;6159074;23;20010;-69
2022/06/03 10:01:28;;;;;;;4.90;3.70;;;;;;;17.72;92.21;100191.75;6107932;23;20013;-69
2022/06/03 10:03:59;;;;;;;6.93;3.35;;;;;;;17.72;92.76;100190.91;6132585;23;20012;-69
2022/06/03 10:06:43;;;;;;;5.95;3.28;;;;;;;17.76;92.47;100197.47;6108698;23;20010;-69
2022/06/03 10:14:42;;;;;;;3.53;3.00;;;;;;;17.85;93.18;100192.59;6159016;23;20006;-69
2022/06/03 10:17:09;;;;;;;5.25;3.10;;;;;;;17.89;93.08;100189.94;6158972;23;20113;-69
2022/06/03 10:19:34;;;;;;;5.43;2.95;;;;;;;17.91;92.83;100194.00;6108053;23;20459;-69
2022/06/03 10:22:00;;;;;;;6.97;2.83;;;;;;;17.94;92.71;100198.94;6084364;23;20005;-69
2022/06/03 10:24:30;;;;;;;3.78;2.97;;;;;;;17.98;93.05;100199.03;6084574;23;20009;-69
2022/06/03 10:26:58;;;;;;;4.20;3.00;;;;;;;18.00;92.72;100199.53;6133376;23;20068;-69
2022/06/03 10:29:26;;;;;;;3.03;2.50;;;;;;;18.05;92.95;100200.09;6108459;23;20013;-69
2022/06/03 10:32:02;;;;;;;4.32;2.80;;;;;;;18.07;93.36;100189.31;6160907;23;20013;-69
2022/06/03 10:34:33;;;;;;;3.47;2.65;;;;;;;18.08;93.93;100185.34;6159614;23;20041;-69
2022/06/03 10:36:58;;;;;;;3.65;2.53;;;;;;;18.11;94.07;100185.78;6110614;23;20024;-69
2022/06/03 10:39:27;;;;;;;4.30;3.00;;;;;;;18.14;94.66;100179.50;6160760;23;20613;-69
2022/06/03 10:41:54;;;;;;;3.00;2.70;;;;;;;18.16;94.78;100174.31;6135309;23;20372;-69
2022/06/03 10:44:26;;;;;;;3.55;2.55;;;;;;;18.16;95.05;100171.50;6134988;23;20089;-69
2022/06/03 10:47:05;;;;;;;4.25;2.50;;;;;;;18.19;94.56;100177.25;6134605;23;20335;-70
2022/06/03 10:49:38;;;;;;;4.78;2.78;;;;;;;18.22;94.49;100172.88;6133780;23;20501;-69
2022/06/03 11:03:28;;;;;;;3.90;2.65;;;;;;;18.21;95.23;100174.06;6183490;23;20044;-69
2022/06/03 11:05:54;;;;;;;3.90;2.75;;;;;;;18.22;95.00;100172.88;6160398;23;20005;-69
2022/06/03 11:08:21;;;;;;;5.72;2.80;;;;;;;18.22;95.25;100175.69;6160314;23;20005;-70
2022/06/03 11:10:50;;;;;;;5.32;2.92;;;;;;;18.18;95.44;100174.78;6160293;23;20005;-70
2022/06/03 11:13:28;;;;;;;5.20;2.88;;;;;;;18.15;95.52;100181.94;6160736;23;20021;-70
2022/06/03 11:15:54;;;;;;;4.88;3.20;;;;;;;18.10;96.41;100170.94;6159915;23;20604;-70
2022/06/03 11:18:24;;;;;;;5.80;3.40;;;;;;;18.09;96.31;100172.94;6134345;23;20013;-69
2022/06/03 11:20:50;;;;;;;4.88;2.67;;;;;;;18.12;97.07;100177.03;6134959;23;20006;-70
2022/06/03 11:23:16;;;;;;;5.53;3.25;;;;;;;18.09;99.24;100175.72;6086176;23;20090;-70
2022/06/03 11:25:47;;;;;;;5.28;3.25;;;;;;;18.13;100.00;100172.22;6110011;23;20009;-70
2022/06/03 11:28:38;;;;;;;6.40;3.42;;;;;;;18.18;100.00;100174.78;6159938;23;20009;-70
2022/06/03 11:31:15;;;;;;;6.07;3.20;;;;;;;18.24;100.00;100164.94;6112478;23;20009;-69
2022/06/03 11:34:04;;;;;;;6.07;3.50;;;;;;;18.40;100.00;100160.22;6133880;23;20006;-70
2022/06/03 11:36:38;;;;;;;4.40;3.00;;;;;;;18.54;100.00;100165.44;6109690;23;20020;-70
2022/06/03 11:39:22;;;;;;;6.60;2.80;;;;;;;18.71;100.00;100158.72;6134146;23;20002;-70
2022/06/03 11:42:01;;;;;;;4.78;3.10;;;;;;;18.87;100.00;100161.63;6160138;23;20056;-70
2022/06/03 11:44:51;;;;;;;4.43;2.97;;;;;;;19.02;100.00;100163.63;6135879;23;20450;-70
2022/06/03 11:47:29;;;;;;;4.15;2.67;;;;;;;19.25;100.00;100163.88;6111053;23;20552;-70
2022/06/03 11:49:55;;;;;;;3.05;2.60;;;;;;;19.45;100.00;100159.16;6133690;23;20013;-70
2022/06/03 11:52:21;;;;;;;4.85;2.50;;;;;;;19.71;100.00;100158.66;6160094;23;20110;-70
2022/06/03 11:54:47;;;;;;;4.03;2.30;;;;;;;20.00;99.18;100162.16;6086279;23;20428;-70
2022/06/03 11:57:13;;;;;;;5.78;2.40;;;;;;;20.36;97.08;100163.78;6109505;23;20013;-70
2022/06/03 11:59:50;;;;;;;2.47;2.00;;;;;;;20.71;94.56;100158.13;6085584;23;20354;-70
2022/06/03 12:02:29;;;;;;;3.10;1.80;;;;;;;21.13;93.12;100163.00;6134919;23;20006;-70
2022/06/03 12:05:08;;;;;;;4.82;2.13;;;;;;;21.55;88.98;100167.03;6136350;23;20506;-70
2022/06/03 12:07:35;;;;;;;5.80;2.08;;;;;;;21.90;86.12;100160.31;6134410;23;20088;-70
2022/06/03 12:10:11;;;;;;;2.03;1.83;;;;;;;22.25;82.46;100166.56;6109581;23;20435;-70
2022/06/03 12:15:32;;;;;;;3.47;1.70;;;;;;;22.71;78.00;100148.59;6159832;23;20084;-69
2022/06/03 12:18:42;;;;;;;4.10;1.73;;;;;;;22.95;77.09;100145.25;6133795;23;20037;-69
2022/06/03 12:21:15;;;;;;;2.08;1.80;;;;;;;23.16;76.47;100152.38;6109222;23;20009;-69
2022/06/03 12:23:43;;;;;;;;;;;;;;;23.35;76.65;100160.66;6109933;23;20080;-69
2022/06/03 12:26:13;;;;;;;2.90;1.88;;;;;;;23.49;74.52;100164.84;6159935;23;19962;-69
2022/06/03 12:28:41;;;;;;;2.47;1.85;;;;;;;23.65;75.67;100159.72;6159679;23;20018;-69
2022/06/03 12:31:08;;;;;;;2.42;1.92;;;;;;;23.82;75.69;100167.59;6159662;23;20061;-70
2022/06/03 12:33:55;;;;;;;2.30;1.50;;;;;;;23.93;71.85;100169.69;6159462;23;20005;-70
2022/06/03 12:36:40;;;;;;;2.72;1.55;;;;;;;24.13;73.54;100168.25;6122012;23;20088;-70
2022/06/03 12:39:18;;;;;;;1.88;1.58;;;;;;;24.32;74.56;100161.44;6134117;23;20017;-70
2022/06/03 12:41:43;;;;;;;2.25;1.50;;;;;;;24.47;73.12;100165.25;6159639;23;20010;-70
2022/06/03 12:44:09;;;;;;;2.22;1.42;;;;;;;24.66;70.91;100162.09;6159626;23;20408;-70
2022/06/03 12:46:43;;;;;;;5.13;1.50;;;;;;;24.81;67.98;100157.28;6085215;23;20442;-70
2022/06/03 12:49:38;;;;;;;2.08;1.33;;;;;;;24.99;64.41;100157.34;6133129;23;20402;-70
2022/06/03 12:52:08;;;;;;;3.58;1.35;;;;;;;25.16;64.47;100150.94;6159067;23;20423;-70
2022/06/03 12:54:35;;;;;;;6.35;1.40;;;;;;;25.31;63.71;100154.59;6085938;23;20044;-70
2022/06/03 12:57:07;;;;;;;1.88;1.38;;;;;;;25.46;65.03;100166.81;6133331;23;20089;-70
2022/06/03 13:00:00;;;;;;;2.13;1.40;;;;;;;25.57;65.44;100159.09;6085074;23;19998;-70